Time;durP1;ratioP1;P1;durP2;ratioP2;P2;SDS_P1;SDS_P2;PMS_P1;PMS_P2;Temp;Humidity;BMP_temperature;BMP_pressure;BME280_temperature;BME280_humidity;BME280_pressure;Samples;Min_cycle;Max_cycle;Signal;HPM_P1;HPM_P2
2023/12/02 00:00:09;;;;;;;32.17;11.60;;;;;;;-2.45;57.77;101039.44;5007497;28;20068;-69
2023/12/02 00:02:38;;;;;;;29.83;11.65;;;;;;;-2.49;57.71;101042.78;5007298;28;20046;-69
2023/12/02 00:05:04;;;;;;;35.90;12.55;;;;;;;-2.49;57.92;101037.66;5009669;28;20104;-70
2023/12/02 00:07:29;;;;;;;32.00;12.13;;;;;;;-2.59;57.71;101038.34;4988013;28;20546;-66
2023/12/02 00:09:55;;;;;;;35.05;13.38;;;;;;;-2.52;57.38;101037.63;5010107;28;20025;-69
2023/12/02 00:12:20;;;;;;;33.92;13.85;;;;;;;-2.52;57.61;101038.47;5003414;28;20090;-70
2023/12/02 00:14:46;;;;;;;32.95;12.68;;;;;;;-2.41;57.35;101036.09;5010241;28;20052;-70
2023/12/02 00:17:11;;;;;;;30.17;11.73;;;;;;;-2.36;57.46;101029.34;5006424;28;20064;-70
2023/12/02 00:19:37;;;;;;;43.10;12.32;;;;;;;-2.75;58.54;101024.44;5007166;28;20179;-69
2023/12/02 00:22:04;;;;;;;33.85;13.63;;;;;;;-2.50;58.23;101021.44;5009666;28;20025;-68
2023/12/02 00:24:29;;;;;;;35.42;13.07;;;;;;;-2.42;58.15;101026.72;5002533;28;20060;-66
2023/12/02 00:26:55;;;;;;;36.35;12.80;;;;;;;-2.34;57.68;101026.81;5007560;28;20025;-67
2023/12/02 00:29:21;;;;;;;33.50;11.48;;;;;;;-2.27;57.90;101024.41;5004693;28;20071;-68
2023/12/02 00:31:47;;;;;;;33.25;13.75;;;;;;;-2.36;57.29;101024.22;5005795;28;20033;-69
2023/12/02 00:34:12;;;;;;;36.72;13.05;;;;;;;-2.37;57.63;101022.50;5005086;28;20037;-73
2023/12/02 00:36:38;;;;;;;32.08;12.02;;;;;;;-2.41;57.56;101015.63;5008996;28;20056;-69
2023/12/02 00:39:03;;;;;;;29.80;13.05;;;;;;;-2.34;57.69;101020.00;5008465;28;20050;-68
2023/12/02 00:41:29;;;;;;;37.08;14.30;;;;;;;-2.46;58.35;101017.25;5006077;28;20060;-67
2023/12/02 00:43:54;;;;;;;41.63;12.68;;;;;;;-2.45;57.92;101011.28;5007364;28;20072;-69
2023/12/02 00:46:20;;;;;;;28.45;11.30;;;;;;;-2.38;57.59;101010.56;5005561;28;20029;-71
2023/12/02 00:48:48;;;;;;;32.28;12.57;;;;;;;-2.31;57.67;101006.38;5013326;28;20386;-71
2023/12/02 00:51:14;;;;;;;32.45;11.75;;;;;;;-2.22;57.69;101015.06;5003598;28;20041;-72
2023/12/02 00:53:39;;;;;;;28.08;11.38;;;;;;;-2.18;57.66;101008.28;4991944;28;20049;-70
2023/12/02 00:56:05;;;;;;;29.90;12.50;;;;;;;-2.29;57.35;101012.38;5007867;28;20558;-67
2023/12/02 00:58:31;;;;;;;29.73;11.50;;;;;;;-2.24;57.77;101009.06;5005926;28;21547;-68
2023/12/02 01:00:56;;;;;;;28.77;12.38;;;;;;;-2.16;57.38;100998.91;5008656;28;20033;-66
2023/12/02 01:03:22;;;;;;;28.92;10.63;;;;;;;-2.17;57.32;101001.47;5005247;28;20663;-67
2023/12/02 01:05:47;;;;;;;33.13;11.77;;;;;;;-2.15;57.47;100997.25;5009814;28;20453;-67
2023/12/02 01:08:12;;;;;;;27.13;11.93;;;;;;;-2.14;57.58;100996.38;5004603;28;20506;-66
2023/12/02 01:10:38;;;;;;;26.70;11.85;;;;;;;-2.13;57.48;100995.56;5008879;28;20021;-67
2023/12/02 01:13:03;;;;;;;23.58;10.88;;;;;;;-2.10;57.25;101000.72;5005307;28;20091;-66
2023/12/02 01:15:29;;;;;;;29.13;11.38;;;;;;;-2.10;57.45;100996.44;5005284;28;20076;-66
2023/12/02 01:17:54;;;;;;;28.27;11.13;;;;;;;-2.11;57.45;100998.97;5003477;28;20117;-66
2023/12/02 01:20:20;;;;;;;26.05;9.93;;;;;;;-2.16;57.48;101000.63;5006843;28;20052;-65
2023/12/02 01:22:45;;;;;;;25.10;10.48;;;;;;;-2.19;57.59;101010.84;5005795;28;20081;-66
2023/12/02 01:25:11;;;;;;;25.13;10.68;;;;;;;-2.15;57.39;101007.50;4991507;28;20075;-66
2023/12/02 01:27:36;;;;;;;28.15;10.77;;;;;;;-2.13;57.15;101000.69;5002046;28;20045;-67
2023/12/02 01:30:02;;;;;;;27.70;11.55;;;;;;;-2.16;57.07;101006.59;5007979;28;20037;-69
2023/12/02 01:32:27;;;;;;;25.98;11.00;;;;;;;-2.18;57.38;101004.84;5004135;28;20036;-68
2023/12/02 01:34:53;;;;;;;25.17;11.00;;;;;;;-2.19;57.46;101003.16;5008741;28;20109;-68
2023/12/02 01:37:18;;;;;;;25.52;11.38;;;;;;;-2.24;57.27;101005.66;5004040;28;20039;-66
2023/12/02 01:39:44;;;;;;;27.80;11.13;;;;;;;-2.19;57.32;101015.97;5008253;28;20029;-68
2023/12/02 01:42:10;;;;;;;25.15;11.25;;;;;;;-2.18;57.38;101007.44;5008177;28;20128;-68
2023/12/02 01:44:35;;;;;;;27.85;9.05;;;;;;;-2.19;57.14;101008.28;5001818;28;20692;-68
2023/12/02 01:47:02;;;;;;;25.63;10.73;;;;;;;-2.25;57.05;101006.47;5004613;28;20029;-65
2023/12/02 01:49:28;;;;;;;27.27;10.35;;;;;;;-2.22;56.89;101006.53;5004477;28;20106;-67
2023/12/02 01:51:54;;;;;;;26.02;10.35;;;;;;;-2.28;56.97;101009.00;5008230;28;20044;-66
2023/12/02 01:54:20;;;;;;;27.10;11.63;;;;;;;-2.37;56.85;101009.72;5002718;28;20048;-67
2023/12/02 01:56:48;;;;;;;22.20;9.18;;;;;;;-2.40;56.97;101009.69;5008036;28;20040;-65
2023/12/02 01:59:38;;;;;;;26.63;10.60;;;;;;;-2.37;57.31;101007.16;5003291;28;20435;-66
2023/12/02 02:02:04;;;;;;;23.08;9.15;;;;;;;-2.29;57.21;101010.69;5007432;28;20256;-65
2023/12/02 02:04:30;;;;;;;26.30;10.45;;;;;;;-2.38;57.30;101013.13;5003488;28;20052;-65
2023/12/02 02:06:55;;;;;;;24.77;10.15;;;;;;;-2.37;57.34;101017.38;5007452;28;20037;-65
2023/12/02 02:09:20;;;;;;;26.73;9.88;;;;;;;-2.38;57.16;101018.25;5001295;28;20401;-68
2023/12/02 02:11:49;;;;;;;26.80;10.98;;;;;;;-2.38;57.80;101012.25;5006728;28;20033;-64
2023/12/02 02:14:14;;;;;;;28.80;9.90;;;;;;;-2.26;57.42;101017.56;5007116;28;20042;-72
2023/12/02 02:16:40;;;;;;;25.50;11.30;;;;;;;-2.36;57.41;101018.25;5005503;28;20440;-70
2023/12/02 02:19:08;;;;;;;24.83;9.85;;;;;;;-2.37;57.48;101017.38;5009386;28;20083;-73
2023/12/02 02:21:34;;;;;;;28.25;10.45;;;;;;;-2.26;57.63;101015.00;5009988;28;20566;-70
2023/12/02 02:24:00;;;;;;;32.17;11.98;;;;;;;-2.25;57.55;101011.59;5010656;28;20531;-70
2023/12/02 02:26:26;;;;;;;24.40;11.05;;;;;;;-2.17;57.39;101009.16;5007891;28;20530;-70
2023/12/02 02:28:51;;;;;;;22.83;10.65;;;;;;;-2.10;57.41;101016.94;4987736;28;20061;-69
2023/12/02 02:31:17;;;;;;;22.48;9.70;;;;;;;-2.15;57.28;101015.16;5011530;28;20103;-69
2023/12/02 02:33:42;;;;;;;21.05;9.38;;;;;;;-2.19;57.41;101013.41;4999921;28;20119;-69
2023/12/02 02:36:08;;;;;;;23.88;9.20;;;;;;;-2.16;57.55;101005.75;5010345;28;20122;-68
2023/12/02 02:38:34;;;;;;;18.33;9.00;;;;;;;-2.13;57.24;101003.25;5006734;28;20045;-69
2023/12/02 02:40:59;;;;;;;22.58;8.98;;;;;;;-2.21;57.31;101003.13;5001869;28;20025;-69
2023/12/02 02:43:24;;;;;;;25.27;9.73;;;;;;;-2.29;57.22;101003.03;5005780;28;20048;-69
2023/12/02 02:45:50;;;;;;;22.15;8.95;;;;;;;-2.24;57.38;101008.22;5013555;28;20033;-69
2023/12/02 02:48:15;;;;;;;17.13;8.52;;;;;;;-2.21;57.33;101005.69;5010007;28;20781;-64
2023/12/02 02:50:41;;;;;;;18.10;8.35;;;;;;;-2.19;57.24;101003.16;5008847;28;20069;-63
2023/12/02 02:53:06;;;;;;;17.35;7.05;;;;;;;-2.23;57.45;101004.78;4992621;28;20108;-69
2023/12/02 02:55:32;;;;;;;19.02;6.88;;;;;;;-2.22;57.22;101009.09;5007555;28;20555;-66
2023/12/02 02:57:57;;;;;;;14.93;7.30;;;;;;;-2.26;57.42;101000.50;5011810;28;20485;-69
2023/12/02 03:00:23;;;;;;;13.15;5.63;;;;;;;-2.25;57.31;101001.34;4989621;28;20095;-68
2023/12/02 03:02:48;;;;;;;22.17;7.15;;;;;;;-2.41;57.68;100992.56;4993799;28;20049;-68
2023/12/02 03:05:14;;;;;;;18.75;7.55;;;;;;;-2.36;57.30;100998.63;5004518;28;20582;-68
2023/12/02 03:07:39;;;;;;;13.38;6.50;;;;;;;-2.28;57.23;100991.06;5004321;28;20745;-68
2023/12/02 03:10:07;;;;;;;14.45;6.60;;;;;;;-2.23;57.13;100995.41;5010750;28;20025;-68
2023/12/02 03:12:32;;;;;;;10.80;5.32;;;;;;;-2.25;57.19;100999.63;5008788;28;20030;-68
2023/12/02 03:14:57;;;;;;;12.32;6.40;;;;;;;-2.38;57.04;100994.31;4993040;28;20044;-69
2023/12/02 03:17:23;;;;;;;13.82;6.40;;;;;;;-2.32;57.14;100987.59;5006569;28;20427;-69
2023/12/02 03:19:48;;;;;;;15.50;5.68;;;;;;;-2.32;57.01;100995.28;5011411;28;20060;-69
2023/12/02 03:22:15;;;;;;;14.32;6.60;;;;;;;-2.16;57.29;100996.34;5009874;28;20048;-69
2023/12/02 03:24:41;;;;;;;15.27;6.20;;;;;;;-2.00;57.00;100992.31;5009371;28;21066;-70
2023/12/02 03:27:06;;;;;;;17.20;6.40;;;;;;;-2.04;56.72;100990.56;5011061;28;20084;-70
2023/12/02 03:29:32;;;;;;;19.15;6.70;;;;;;;-2.12;56.67;100992.16;5007292;28;20040;-68
2023/12/02 03:31:58;;;;;;;13.77;6.72;;;;;;;-2.02;56.86;100989.75;5011104;28;20463;-69
2023/12/02 03:34:23;;;;;;;17.83;7.22;;;;;;;-2.05;56.50;100991.41;5005669;28;20057;-69
2023/12/02 03:36:49;;;;;;;17.45;8.15;;;;;;;-2.01;56.74;100990.59;5010239;28;20530;-70
2023/12/02 03:39:15;;;;;;;19.77;8.63;;;;;;;-1.91;56.82;100992.47;5008858;28;20045;-70
2023/12/02 03:41:42;;;;;;;20.63;8.50;;;;;;;-1.93;56.81;100996.69;4989487;28;20033;-69
2023/12/02 03:44:08;;;;;;;17.33;8.57;;;;;;;-1.85;56.62;100994.22;5006212;28;20045;-69
2023/12/02 03:46:37;;;;;;;23.02;9.40;;;;;;;-1.80;56.73;100993.47;5006923;28;20037;-69
2023/12/02 03:49:03;;;;;;;20.92;10.15;;;;;;;-1.92;56.37;100998.41;5025625;28;20128;-71
2023/12/02 03:51:29;;;;;;;21.60;9.02;;;;;;;-1.89;56.51;100985.66;4987362;28;20663;-69
2023/12/02 03:53:55;;;;;;;21.00;9.70;;;;;;;-1.90;56.63;100986.47;5010620;28;20041;-69
2023/12/02 03:56:21;;;;;;;24.67;9.98;;;;;;;-2.04;56.52;100993.13;5010401;28;20038;-69
2023/12/02 03:58:46;;;;;;;24.10;9.77;;;;;;;-2.08;56.79;100992.22;5002631;28;20086;-69
2023/12/02 04:01:13;;;;;;;23.33;9.40;;;;;;;-2.08;57.16;100993.94;5010411;28;20027;-69
2023/12/02 04:03:38;;;;;;;19.90;9.00;;;;;;;-2.10;57.24;100987.91;5006855;28;20048;-68
2023/12/02 04:06:05;;;;;;;19.15;8.50;;;;;;;-2.12;56.94;100992.16;5011841;28;20479;-66
2023/12/02 04:08:31;;;;;;;18.48;7.82;;;;;;;-2.11;57.00;100986.19;5001573;28;21676;-67
2023/12/02 04:10:57;;;;;;;19.85;9.40;;;;;;;-2.02;57.16;100988.91;5012434;28;20032;-67
2023/12/02 04:13:22;;;;;;;22.10;9.23;;;;;;;-2.02;57.46;100988.91;5007941;28;20049;-68
2023/12/02 04:15:48;;;;;;;24.73;10.60;;;;;;;-1.93;57.18;100989.03;5006918;28;20029;-70
2023/12/02 04:18:13;;;;;;;18.42;9.18;;;;;;;-2.03;57.04;100985.44;5008505;28;20638;-66
2023/12/02 04:20:40;;;;;;;19.42;8.82;;;;;;;-1.92;57.01;100993.28;5006742;28;20040;-65
2023/12/02 04:23:06;;;;;;;19.92;8.48;;;;;;;-2.05;56.99;100993.97;5009489;28;20034;-65
2023/12/02 04:25:31;;;;;;;20.77;8.48;;;;;;;-2.05;57.05;100993.97;5002537;28;21466;-64
2023/12/02 04:27:57;;;;;;;20.50;9.25;;;;;;;-2.03;57.29;100998.25;5008047;28;20037;-66
2023/12/02 04:30:22;;;;;;;22.38;8.45;;;;;;;-2.06;57.67;101003.34;5006572;28;20142;-66
2023/12/02 04:32:48;;;;;;;21.90;8.57;;;;;;;-2.06;57.42;100998.22;5007289;28;20451;-65
2023/12/02 04:35:14;;;;;;;19.48;7.50;;;;;;;-1.97;57.52;101000.06;5006034;28;20045;-64
2023/12/02 04:37:41;;;;;;;21.45;9.07;;;;;;;-1.88;57.58;100997.63;5004956;28;20041;-67
2023/12/02 04:40:11;;;;;;;19.27;7.97;;;;;;;-1.84;57.62;100999.38;5009816;28;20037;-66
2023/12/02 04:42:40;;;;;;;20.48;7.78;;;;;;;-1.77;57.28;100999.47;5003018;28;20041;-67
2023/12/02 04:45:06;;;;;;;15.73;7.13;;;;;;;-1.82;57.13;101005.38;5011580;28;20155;-70
2023/12/02 04:47:31;;;;;;;17.85;7.55;;;;;;;-1.77;57.09;100999.47;5005242;28;20041;-74
2023/12/02 04:49:57;;;;;;;12.15;6.10;;;;;;;-1.78;57.45;101008.84;5012695;28;20508;-74
2023/12/02 04:52:23;;;;;;;12.20;6.43;;;;;;;-1.78;57.26;101007.97;5007974;28;20129;-71
2023/12/02 04:54:49;;;;;;;14.75;7.18;;;;;;;-1.89;57.46;101003.59;5007555;28;20132;-72
2023/12/02 04:57:14;;;;;;;15.70;6.20;;;;;;;-1.90;57.56;101004.41;5001491;28;20662;-74
2023/12/02 04:59:40;;;;;;;14.07;6.40;;;;;;;-1.93;57.58;101003.50;5003989;28;20156;-74
2023/12/02 05:02:06;;;;;;;14.70;7.18;;;;;;;-1.96;57.43;101008.59;4992415;28;20029;-73
2023/12/02 05:04:31;;;;;;;18.23;8.65;;;;;;;-2.11;57.82;101006.66;4986624;28;20621;-70
2023/12/02 05:06:57;;;;;;;21.60;8.88;;;;;;;-2.08;57.95;101015.28;5007592;28;20699;-70
2023/12/02 05:09:22;;;;;;;21.67;7.93;;;;;;;-2.05;57.79;101009.31;5007140;28;20057;-71
2023/12/02 05:11:48;;;;;;;15.30;6.90;;;;;;;-2.19;57.97;101021.06;5005742;28;20069;-70
2023/12/02 05:14:13;;;;;;;17.33;7.70;;;;;;;-2.04;57.81;101016.19;4991498;28;20077;-74
2023/12/02 05:16:42;;;;;;;14.40;6.47;;;;;;;-2.05;57.71;101017.00;5002687;28;20044;-70
2023/12/02 05:19:08;;;;;;;11.10;5.38;;;;;;;-2.05;57.59;101019.56;5007435;28;20131;-68
2023/12/02 05:21:36;;;;;;;14.43;6.15;;;;;;;-2.08;57.53;101027.22;5004955;28;20643;-73
2023/12/02 05:24:01;;;;;;;12.90;5.32;;;;;;;-2.07;57.55;101018.69;5004873;28;20099;-71
2023/12/02 05:26:27;;;;;;;13.27;5.93;;;;;;;-2.04;57.42;101021.31;5007182;28;20041;-70
2023/12/02 05:28:52;;;;;;;11.82;5.18;;;;;;;-2.06;57.76;101028.97;5002687;28;20064;-72
2023/12/02 05:31:19;;;;;;;10.30;4.90;;;;;;;-2.08;57.45;101022.94;5010240;28;20771;-72
2023/12/02 05:33:46;;;;;;;13.25;4.95;;;;;;;-2.09;57.85;101017.78;5004605;28;20398;-70
2023/12/02 05:36:11;;;;;;;13.63;5.75;;;;;;;-2.11;58.00;101022.03;5010932;28;20037;-69
2023/12/02 05:38:37;;;;;;;13.10;5.13;;;;;;;-2.15;57.78;101023.72;5004174;28;20116;-68
2023/12/02 05:41:06;;;;;;;8.25;3.60;;;;;;;-2.14;58.00;101015.16;5010242;28;20033;-68
2023/12/02 05:43:32;;;;;;;8.77;3.47;;;;;;;-2.10;57.61;101026.34;5002261;28;20519;-70
2023/12/02 05:45:58;;;;;;;13.63;5.63;;;;;;;-2.19;58.21;101021.94;5008558;28;20038;-70
2023/12/02 05:48:24;;;;;;;11.27;4.47;;;;;;;-2.21;58.00;101023.59;5004166;28;20038;-72
2023/12/02 05:50:50;;;;;;;13.50;4.53;;;;;;;-2.24;58.28;101034.66;5006271;28;21400;-73
2023/12/02 05:53:15;;;;;;;13.30;5.18;;;;;;;-2.16;57.98;101032.22;4990544;28;20107;-73
2023/12/02 05:55:41;;;;;;;10.45;4.60;;;;;;;-2.19;57.90;101033.88;5003612;28;22037;-71
2023/12/02 05:58:06;;;;;;;13.27;4.63;;;;;;;-2.30;58.22;101034.56;5008317;28;20084;-72
2023/12/02 06:00:35;;;;;;;7.25;3.78;;;;;;;-2.16;58.05;101031.34;5002975;28;20025;-66
2023/12/02 06:03:01;;;;;;;8.63;3.65;;;;;;;-2.22;58.10;101038.13;5007573;28;20041;-69
2023/12/02 06:05:27;;;;;;;8.07;4.18;;;;;;;-2.15;58.13;101045.91;5005595;28;20066;-70
2023/12/02 06:07:53;;;;;;;10.32;4.22;;;;;;;-2.10;58.20;101042.56;5003475;28;20049;-71
2023/12/02 06:10:18;;;;;;;10.85;4.18;;;;;;;-2.20;58.11;101050.97;5006057;28;20041;-69
2023/12/02 06:12:44;;;;;;;8.57;3.92;;;;;;;-2.25;58.16;101050.00;5002480;28;20045;-70
2023/12/02 06:15:11;;;;;;;11.20;5.60;;;;;;;-2.24;58.37;101054.28;5008028;28;20037;-70
2023/12/02 06:17:37;;;;;;;8.57;4.05;;;;;;;-2.16;58.19;101049.28;5002250;28;20192;-69
2023/12/02 06:20:06;;;;;;;9.50;5.03;;;;;;;-2.22;58.27;101057.75;5007270;28;20112;-68
2023/12/02 06:22:35;;;;;;;10.57;5.35;;;;;;;-2.14;58.27;101052.72;5004865;28;20045;-71
2023/12/02 06:25:01;;;;;;;11.38;4.93;;;;;;;-2.12;58.22;101049.34;5007150;28;20044;-69
2023/12/02 06:27:26;;;;;;;8.65;4.00;;;;;;;-2.15;58.44;101053.59;5005281;28;20033;-68
2023/12/02 06:29:52;;;;;;;7.28;3.70;;;;;;;-2.02;58.01;101055.50;5003459;28;20028;-70
2023/12/02 06:32:17;;;;;;;8.23;3.55;;;;;;;-2.07;58.08;101060.56;5005156;28;20044;-70
2023/12/02 06:34:43;;;;;;;8.15;4.28;;;;;;;-2.10;58.44;101065.59;4984926;28;20115;-70
2023/12/02 06:37:08;;;;;;;7.90;3.35;;;;;;;-2.06;58.47;101066.53;5005791;28;20122;-70
2023/12/02 06:39:34;;;;;;;9.45;3.85;;;;;;;-2.07;58.32;101062.22;5004447;28;20055;-69
2023/12/02 06:41:59;;;;;;;7.88;3.13;;;;;;;-2.05;58.45;101069.09;5006063;28;20410;-65
2023/12/02 06:44:25;;;;;;;7.65;3.67;;;;;;;-2.01;58.35;101072.56;5008461;28;20056;-68
2023/12/02 06:46:51;;;;;;;7.88;3.85;;;;;;;-1.95;58.20;101076.94;5001526;28;20105;-69
2023/12/02 06:49:17;;;;;;;8.15;4.20;;;;;;;-2.04;57.98;101083.63;5010086;28;20615;-69
2023/12/02 06:51:42;;;;;;;8.60;3.03;;;;;;;-2.01;58.04;101077.69;5002265;28;20040;-69
2023/12/02 06:54:08;;;;;;;7.32;3.13;;;;;;;-2.00;57.92;101076.84;4988071;28;20054;-69
2023/12/02 06:56:33;;;;;;;10.57;4.20;;;;;;;-2.07;57.86;101083.59;5005777;28;20033;-72
2023/12/02 06:58:59;;;;;;;7.97;3.30;;;;;;;-2.09;58.02;101085.28;5001815;28;20069;-72
2023/12/02 07:01:30;;;;;;;7.68;3.20;;;;;;;-2.14;58.25;101084.31;5008843;28;20037;-73
2023/12/02 07:03:57;;;;;;;9.63;2.93;;;;;;;-2.16;58.09;101087.69;4993806;28;20292;-71
2023/12/02 07:06:23;;;;;;;5.05;2.58;;;;;;;-2.01;58.17;101103.31;5012930;28;20319;-77
2023/12/02 07:08:50;;;;;;;8.85;2.97;;;;;;;-1.99;57.90;101100.78;5004586;28;20044;-73
2023/12/02 07:11:15;;;;;;;13.05;3.45;;;;;;;-2.00;57.95;101099.91;5002920;28;20037;-72
2023/12/02 07:13:41;;;;;;;8.52;3.90;;;;;;;-2.08;58.26;101096.38;5002054;28;20048;-70
2023/12/02 07:16:07;;;;;;;6.63;2.88;;;;;;;-1.98;58.02;101108.47;5013475;28;20556;-70
2023/12/02 07:18:32;;;;;;;7.53;3.75;;;;;;;-1.96;58.04;101109.34;5007518;28;20092;-68
2023/12/02 07:20:58;;;;;;;24.92;6.80;;;;;;;-1.90;57.59;101114.59;5008670;28;20688;-70
2023/12/02 07:23:28;;;;;;;7.60;4.50;;;;;;;-1.86;57.62;101123.19;5012285;28;20607;-71
2023/12/02 07:25:55;;;;;;;4.75;2.53;;;;;;;-1.85;57.58;101120.63;4989551;28;20835;-71
2023/12/02 07:28:21;;;;;;;6.65;3.17;;;;;;;-1.84;57.53;101132.63;5011905;28;20061;-66
2023/12/02 07:30:48;;;;;;;6.05;2.40;;;;;;;-1.90;57.55;101129.09;5004948;28;20036;-71
2023/12/02 07:33:14;;;;;;;7.32;3.13;;;;;;;-1.96;57.58;101132.41;5010599;28;20045;-74
2023/12/02 07:35:39;;;;;;;6.13;2.70;;;;;;;-1.95;57.51;101138.44;4989947;28;20067;-68
2023/12/02 07:38:05;;;;;;;8.27;4.22;;;;;;;-1.96;57.61;101137.53;5011200;28;20057;-69
2023/12/02 07:40:30;;;;;;;7.00;3.67;;;;;;;-1.96;57.46;101132.41;5011555;28;20044;-66
2023/12/02 07:42:56;;;;;;;5.82;2.58;;;;;;;-1.91;57.62;101137.59;5003725;28;20140;-68
2023/12/02 07:45:22;;;;;;;5.57;2.92;;;;;;;-1.86;57.54;101138.56;5012261;28;20695;-70
2023/12/02 07:47:47;;;;;;;10.10;3.40;;;;;;;-1.90;57.69;101142.75;5003017;28;20037;-67
2023/12/02 07:50:13;;;;;;;7.40;2.67;;;;;;;-1.86;57.72;101143.69;5010327;28;20072;-66
2023/12/02 07:52:38;;;;;;;9.60;2.80;;;;;;;-1.90;57.66;101142.75;5009093;28;20060;-68
2023/12/02 07:55:04;;;;;;;6.40;2.92;;;;;;;-1.92;57.60;101143.59;5025429;28;20141;-69
2023/12/02 07:57:30;;;;;;;4.57;3.15;;;;;;;-1.91;58.15;101145.28;5008742;28;20037;-68
2023/12/02 07:59:55;;;;;;;7.22;3.65;;;;;;;-1.88;57.78;101146.22;4988556;28;20150;-67
2023/12/02 08:02:21;;;;;;;5.60;3.17;;;;;;;-1.88;57.92;101156.47;5008411;28;20037;-68
2023/12/02 08:04:47;;;;;;;5.35;2.80;;;;;;;-1.92;57.54;101156.41;5005307;28;20216;-67
2023/12/02 08:07:12;;;;;;;9.05;3.83;;;;;;;-2.00;57.46;101161.38;5010236;28;20090;-68
2023/12/02 08:09:38;;;;;;;10.43;4.65;;;;;;;-2.03;57.62;101169.03;5005182;28;20037;-67
2023/12/02 08:12:04;;;;;;;12.18;5.50;;;;;;;-1.95;57.72;101169.16;5007990;28;20051;-68
2023/12/02 08:14:29;;;;;;;9.90;4.60;;;;;;;-1.94;57.99;101174.28;4981506;28;20698;-68
2023/12/02 08:16:55;;;;;;;10.63;5.93;;;;;;;-1.93;58.26;101178.59;5004474;28;20136;-68
2023/12/02 08:19:20;;;;;;;7.13;4.30;;;;;;;-1.83;57.97;101175.31;5008592;28;20037;-67
2023/12/02 08:21:46;;;;;;;6.88;3.60;;;;;;;-1.77;58.07;101168.59;5004246;28;20095;-67
2023/12/02 08:24:11;;;;;;;8.35;3.63;;;;;;;-1.63;57.44;101183.34;5008829;28;20069;-67
2023/12/02 08:26:37;;;;;;;8.02;3.25;;;;;;;-1.60;57.57;101182.50;5010135;28;20232;-66
2023/12/02 08:29:02;;;;;;;9.43;5.00;;;;;;;-1.61;57.19;101189.34;5001839;28;20061;-65
2023/12/02 08:31:28;;;;;;;6.70;3.70;;;;;;;-1.68;57.28;101189.25;5008403;28;20037;-67
2023/12/02 08:33:53;;;;;;;7.75;3.17;;;;;;;-1.51;57.53;101182.69;5000598;28;20106;-65
2023/12/02 08:36:19;;;;;;;8.38;4.03;;;;;;;-1.49;57.78;101190.38;5009367;28;20114;-65
2023/12/02 08:38:44;;;;;;;6.63;3.35;;;;;;;-1.42;57.60;101193.06;5005443;28;20089;-66
2023/12/02 08:41:11;;;;;;;7.28;3.30;;;;;;;-1.31;57.55;101189.78;5008747;28;20034;-67
2023/12/02 08:43:37;;;;;;;11.50;2.97;;;;;;;-1.21;57.38;101194.22;5008572;28;20041;-68
2023/12/02 08:46:02;;;;;;;5.80;3.47;;;;;;;-1.13;57.06;101192.59;5001928;28;21496;-67
2023/12/02 08:48:28;;;;;;;7.40;3.33;;;;;;;-1.19;56.81;101200.22;4992220;28;20038;-66
2023/12/02 08:50:54;;;;;;;6.18;3.58;;;;;;;-1.15;56.88;101191.75;5004097;28;20530;-67
2023/12/02 08:53:19;;;;;;;5.38;3.10;;;;;;;-1.02;57.21;101200.47;5007934;28;20113;-65
2023/12/02 08:55:45;;;;;;;8.00;3.65;;;;;;;-0.80;57.14;101204.19;5004933;28;20758;-67
2023/12/02 08:58:10;;;;;;;9.55;4.50;;;;;;;-0.78;56.25;101210.19;5008093;28;20156;-66
2023/12/02 09:00:35;;;;;;;6.07;3.33;;;;;;;-0.83;55.56;101216.97;5011871;28;20531;-65
2023/12/02 09:03:01;;;;;;;7.32;3.72;;;;;;;-0.82;56.16;101211.84;5005518;28;20080;-67
2023/12/02 09:05:26;;;;;;;8.55;4.43;;;;;;;-0.87;55.24;101218.63;5014399;28;20396;-65
2023/12/02 09:07:52;;;;;;;7.57;4.25;;;;;;;-0.92;55.47;101219.44;5002212;28;20595;-67
2023/12/02 09:10:18;;;;;;;9.63;4.38;;;;;;;-0.80;55.84;101222.13;5010562;28;20044;-68
2023/12/02 09:12:44;;;;;;;10.43;4.55;;;;;;;-0.87;55.30;101233.19;5002425;28;20045;-67
2023/12/02 09:15:16;;;;;;;5.90;3.35;;;;;;;-0.97;55.10;101238.19;5007702;28;20499;-67
2023/12/02 09:17:50;;;;;;;5.97;3.03;;;;;;;-0.90;54.79;101236.56;5007172;28;20049;-67
2023/12/02 09:20:38;;;;;;;5.70;3.47;;;;;;;-0.78;55.50;101233.28;5008305;28;20116;-67
2023/12/02 09:23:06;;;;;;;7.05;3.47;;;;;;;-0.61;55.14;101231.81;5001487;28;20984;-67
2023/12/02 09:25:35;;;;;;;6.72;3.45;;;;;;;-0.45;54.62;101240.53;5009080;28;20268;-67
2023/12/02 09:28:07;;;;;;;5.03;3.15;;;;;;;-0.45;54.37;101242.25;4982368;28;20057;-67
2023/12/02 09:30:33;;;;;;;7.05;3.33;;;;;;;-0.32;54.74;101233.84;5009047;28;20128;-68
2023/12/02 09:33:00;;;;;;;5.30;3.50;;;;;;;-0.22;54.22;101234.78;5000792;28;20419;-65
2023/12/02 09:35:26;;;;;;;4.85;3.50;;;;;;;-0.17;54.02;101236.59;5008171;28;20048;-67
2023/12/02 09:37:51;;;;;;;5.55;3.03;;;;;;;0.08;54.45;101239.41;5000171;28;20037;-66
2023/12/02 09:40:23;;;;;;;5.68;3.42;;;;;;;0.27;54.00;101236.13;5009572;28;20033;-69
2023/12/02 09:42:54;;;;;;;5.30;2.75;;;;;;;0.23;52.60;101239.53;4984187;28;20053;-66
2023/12/02 09:45:36;;;;;;;4.28;2.58;;;;;;;0.13;51.98;101236.88;5009522;28;20041;-68
2023/12/02 09:48:19;;;;;;;5.30;2.43;;;;;;;0.11;52.40;101236.84;5001899;28;20945;-67
2023/12/02 09:51:01;;;;;;;5.57;2.70;;;;;;;0.21;51.81;101228.38;5008446;28;20804;-67
2023/12/02 09:53:54;;;;;;;6.97;3.10;;;;;;;0.14;51.77;101226.56;5006479;28;20427;-68
2023/12/02 09:56:24;;;;;;;5.25;2.85;;;;;;;0.19;52.22;101235.22;4999245;28;20530;-67
2023/12/02 09:59:03;;;;;;;5.07;3.40;;;;;;;0.47;52.41;101238.00;5002145;28;20073;-64
2023/12/02 10:01:42;;;;;;;6.57;3.25;;;;;;;0.51;50.31;101229.47;5004341;28;20047;-67
2023/12/02 10:04:17;;;;;;;4.45;2.90;;;;;;;0.62;51.85;101226.97;5003290;28;20292;-65
2023/12/02 10:07:00;;;;;;;4.85;3.72;;;;;;;0.67;51.14;101233.84;5008300;28;20965;-69
2023/12/02 10:10:13;;;;;;;7.32;3.53;;;;;;;0.88;50.33;101219.41;5007773;28;20045;-67
2023/12/02 10:12:38;;;;;;;9.98;5.35;;;;;;;0.78;49.64;101227.94;4948279;28;20481;-67
2023/12/02 10:15:07;;;;;;;9.55;3.53;;;;;;;0.65;50.00;101222.69;4942499;28;20129;-66
2023/12/02 10:17:40;;;;;;;4.43;2.70;;;;;;;0.71;50.38;101221.88;4969021;28;20060;-66
2023/12/02 10:20:11;;;;;;;6.32;4.20;;;;;;;0.82;50.66;101224.53;5003505;28;20033;-66
2023/12/02 10:22:57;;;;;;;;;;;;;;;0.76;49.98;101227.91;4997590;28;20034;-66
2023/12/02 10:25:40;;;;;;;11.23;4.95;;;;;;;0.62;50.02;101232.97;5007548;28;20403;-65
2023/12/02 10:28:41;;;;;;;8.35;4.90;;;;;;;0.51;50.88;101224.31;5001563;28;20056;-67
2023/12/02 10:31:09;;;;;;;8.10;4.80;;;;;;;0.08;50.52;101229.13;5002685;28;20156;-65
2023/12/02 10:33:43;;;;;;;8.32;5.47;;;;;;;0.01;51.08;101229.88;5007789;28;20641;-66
2023/12/02 10:36:10;;;;;;;5.90;3.97;;;;;;;-0.11;51.52;101222.91;5002632;28;20389;-66
2023/12/02 10:38:47;;;;;;;7.75;3.80;;;;;;;-0.23;51.99;101218.53;5008491;28;20049;-68
2023/12/02 10:41:38;;;;;;;6.35;3.72;;;;;;;-0.47;52.00;101223.41;5007167;28;20040;-65
2023/12/02 10:44:07;;;;;;;6.85;4.07;;;;;;;-0.49;52.90;101220.81;5005404;28;20085;-67
2023/12/02 10:46:33;;;;;;;6.97;4.35;;;;;;;-0.58;52.56;101221.56;5011116;28;20629;-68
2023/12/02 10:49:00;;;;;;;10.40;5.72;;;;;;;-0.65;52.22;101213.78;5005124;28;20083;-67
2023/12/02 10:51:27;;;;;;;6.82;4.68;;;;;;;-0.69;53.27;101223.13;5009956;28;20060;-67
2023/12/02 10:53:57;;;;;;;8.68;4.78;;;;;;;-0.45;53.71;101221.72;5002129;28;20048;-65
2023/12/02 10:56:23;;;;;;;9.80;4.93;;;;;;;-0.07;53.53;101218.69;5010858;28;20040;-65
2023/12/02 10:58:52;;;;;;;7.85;5.15;;;;;;;0.03;52.38;101221.34;4998533;28;20107;-66
2023/12/02 11:01:28;;;;;;;6.60;4.18;;;;;;;0.22;52.05;101219.81;5012980;28;20044;-67
2023/12/02 11:04:19;;;;;;;13.10;4.35;;;;;;;0.41;51.86;101213.13;5004211;28;20530;-67
2023/12/02 11:07:07;;;;;;;5.43;2.78;;;;;;;0.58;51.55;101217.50;5008594;28;20797;-67
2023/12/02 11:09:43;;;;;;;6.50;3.80;;;;;;;0.82;49.99;101219.38;5000522;28;20206;-66
2023/12/02 11:12:46;;;;;;;6.53;3.75;;;;;;;0.91;49.98;101216.84;5005968;28;20040;-65
2023/12/02 11:15:13;;;;;;;7.00;3.65;;;;;;;1.19;50.07;101217.00;5006557;28;20096;-67
2023/12/02 11:17:46;;;;;;;9.48;3.47;;;;;;;1.28;48.72;101217.03;5009562;28;20129;-66
2023/12/02 11:20:20;;;;;;;6.25;4.15;;;;;;;1.45;49.85;101217.13;5005944;28;20045;-68